sensor_id;sensor_type;location;lat;lon;timestamp;pressure;altitude;pressure_sealevel;temperature;humidity
77776;BME280;66965;43.328;6.668;2023-03-14T00:00:37;100873.69;;;14.54;88.67
77776;BME280;66965;43.328;6.668;2023-03-14T00:03:03;100869.50;;;14.48;88.74
77776;BME280;66965;43.328;6.668;2023-03-14T00:05:29;100863.97;;;14.56;88.80
77776;BME280;66965;43.328;6.668;2023-03-14T00:07:54;100863.69;;;14.63;88.33
77776;BME280;66965;43.328;6.668;2023-03-14T00:10:20;100861.81;;;14.67;88.31
77776;BME280;66965;43.328;6.668;2023-03-14T00:12:46;100854.97;;;14.61;88.37
77776;BME280;66965;43.328;6.668;2023-03-14T00:15:12;100840.16;;;14.57;88.01
77776;BME280;66965;43.328;6.668;2023-03-14T00:17:38;100837.19;;;14.66;88.22
77776;BME280;66965;43.328;6.668;2023-03-14T00:20:05;100815.03;;;14.70;87.95
77776;BME280;66965;43.328;6.668;2023-03-14T00:22:40;100817.06;;;14.64;87.98
77776;BME280;66965;43.328;6.668;2023-03-14T00:25:07;100817.63;;;14.72;87.71
77776;BME280;66965;43.328;6.668;2023-03-14T00:27:33;100814.06;;;14.73;87.62
77776;BME280;66965;43.328;6.668;2023-03-14T00:29:59;100788.53;;;14.73;87.41
77776;BME280;66965;43.328;6.668;2023-03-14T00:32:25;100787.13;;;14.87;87.27
77776;BME280;66965;43.328;6.668;2023-03-14T00:34:50;100758.91;;;14.89;86.58
77776;BME280;66965;43.328;6.668;2023-03-14T00:37:16;100733.19;;;14.94;86.65
77776;BME280;66965;43.328;6.668;2023-03-14T00:39:41;100719.75;;;15.00;86.08
77776;BME280;66965;43.328;6.668;2023-03-14T00:42:07;100731.28;;;14.97;86.04
77776;BME280;66965;43.328;6.668;2023-03-14T00:44:32;100740.88;;;15.00;85.66
77776;BME280;66965;43.328;6.668;2023-03-14T00:46:58;100753.13;;;15.01;86.08
77776;BME280;66965;43.328;6.668;2023-03-14T00:49:23;100740.13;;;14.96;86.02
77776;BME280;66965;43.328;6.668;2023-03-14T00:51:49;100732.75;;;15.04;86.16
77776;BME280;66965;43.328;6.668;2023-03-14T00:54:14;100735.94;;;15.12;85.59
77776;BME280;66965;43.328;6.668;2023-03-14T00:56:40;100747.69;;;15.05;85.57
77776;BME280;66965;43.328;6.668;2023-03-14T00:59:05;100769.72;;;14.82;85.92
77776;BME280;66965;43.328;6.668;2023-03-14T01:01:31;100756.19;;;14.90;86.03
77776;BME280;66965;43.328;6.668;2023-03-14T01:03:56;100739.75;;;15.05;86.01
77776;BME280;66965;43.328;6.668;2023-03-14T01:06:24;100731.09;;;15.02;85.91
77776;BME280;66965;43.328;6.668;2023-03-14T01:08:50;100721.66;;;14.96;85.99
77776;BME280;66965;43.328;6.668;2023-03-14T01:11:26;100706.28;;;15.06;86.15
77776;BME280;66965;43.328;6.668;2023-03-14T01:13:52;100704.63;;;15.03;86.03
77776;BME280;66965;43.328;6.668;2023-03-14T01:16:19;100687.88;;;15.04;86.20
77776;BME280;66965;43.328;6.668;2023-03-14T01:18:46;100689.31;;;14.91;85.73
77776;BME280;66965;43.328;6.668;2023-03-14T01:21:24;100681.84;;;15.01;86.13
77776;BME280;66965;43.328;6.668;2023-03-14T01:23:50;100673.03;;;15.02;85.88
77776;BME280;66965;43.328;6.668;2023-03-14T01:26:18;100663.38;;;15.01;85.88
77776;BME280;66965;43.328;6.668;2023-03-14T01:28:45;100668.19;;;14.91;85.79
77776;BME280;66965;43.328;6.668;2023-03-14T01:31:12;100668.91;;;14.95;86.12
77776;BME280;66965;43.328;6.668;2023-03-14T01:33:38;100658.09;;;15.01;86.18
77776;BME280;66965;43.328;6.668;2023-03-14T01:36:04;100657.97;;;15.04;86.18
77776;BME280;66965;43.328;6.668;2023-03-14T01:38:31;100644.66;;;15.07;85.88
77776;BME280;66965;43.328;6.668;2023-03-14T01:40:57;100627.16;;;15.04;85.88
77776;BME280;66965;43.328;6.668;2023-03-14T01:43:23;100628.16;;;15.02;85.70
77776;BME280;66965;43.328;6.668;2023-03-14T01:48:25;100628.78;;;14.87;85.29
77776;BME280;66965;43.328;6.668;2023-03-14T01:50:52;100643.16;;;14.79;85.48
77776;BME280;66965;43.328;6.668;2023-03-14T01:53:18;100642.53;;;14.73;85.76
77776;BME280;66965;43.328;6.668;2023-03-14T01:55:47;100655.03;;;14.69;86.21
77776;BME280;66965;43.328;6.668;2023-03-14T01:58:15;100657.94;;;14.62;85.92
77776;BME280;66965;43.328;6.668;2023-03-14T02:00:41;100678.72;;;14.26;86.36
77776;BME280;66965;43.328;6.668;2023-03-14T02:03:12;100666.56;;;14.22;86.80
77776;BME280;66965;43.328;6.668;2023-03-14T02:05:40;100606.53;;;13.37;84.92
77776;BME280;66965;43.328;6.668;2023-03-14T02:08:09;100627.69;;;13.34;81.63
77776;BME280;66965;43.328;6.668;2023-03-14T02:10:39;100626.63;;;13.15;80.12
77776;BME280;66965;43.328;6.668;2023-03-14T02:13:07;100617.94;;;13.13;79.27
77776;BME280;66965;43.328;6.668;2023-03-14T02:15:33;100605.56;;;13.15;76.65
77776;BME280;66965;43.328;6.668;2023-03-14T02:18:01;100577.66;;;13.11;75.32
77776;BME280;66965;43.328;6.668;2023-03-14T02:23:01;100545.97;;;13.14;71.81
77776;BME280;66965;43.328;6.668;2023-03-14T02:25:47;100536.25;;;13.16;69.71
77776;BME280;66965;43.328;6.668;2023-03-14T02:28:14;100561.63;;;13.17;68.99
77776;BME280;66965;43.328;6.668;2023-03-14T02:30:39;100536.53;;;13.09;69.26
77776;BME280;66965;43.328;6.668;2023-03-14T02:33:08;100543.09;;;13.20;68.58
77776;BME280;66965;43.328;6.668;2023-03-14T02:35:47;100538.28;;;13.06;69.98
77776;BME280;66965;43.328;6.668;2023-03-14T02:38:33;100525.84;;;13.12;67.58
77776;BME280;66965;43.328;6.668;2023-03-14T02:41:01;100544.94;;;13.18;66.28
77776;BME280;66965;43.328;6.668;2023-03-14T02:43:26;100523.13;;;13.15;66.10
77776;BME280;66965;43.328;6.668;2023-03-14T02:45:53;100509.81;;;13.19;65.07
77776;BME280;66965;43.328;6.668;2023-03-14T02:50:48;100504.81;;;13.12;64.41
77776;BME280;66965;43.328;6.668;2023-03-14T02:53:19;100514.25;;;13.17;63.15
77776;BME280;66965;43.328;6.668;2023-03-14T02:55:48;100522.88;;;13.22;62.89
77776;BME280;66965;43.328;6.668;2023-03-14T02:58:14;100509.53;;;13.27;63.10
77776;BME280;66965;43.328;6.668;2023-03-14T03:00:40;100507.31;;;13.15;63.16
77776;BME280;66965;43.328;6.668;2023-03-14T03:03:05;100514.25;;;13.17;63.00
77776;BME280;66965;43.328;6.668;2023-03-14T03:05:32;100505.38;;;13.20;62.81
77776;BME280;66965;43.328;6.668;2023-03-14T03:07:57;100502.75;;;13.20;63.01
77776;BME280;66965;43.328;6.668;2023-03-14T03:10:23;100504.47;;;13.21;62.32
77776;BME280;66965;43.328;6.668;2023-03-14T03:12:48;100493.03;;;13.22;63.46
77776;BME280;66965;43.328;6.668;2023-03-14T03:15:14;100508.97;;;13.17;63.70
77776;BME280;66965;43.328;6.668;2023-03-14T03:17:39;100505.66;;;13.12;63.67
77776;BME280;66965;43.328;6.668;2023-03-14T03:20:05;100510.22;;;13.09;64.12
77776;BME280;66965;43.328;6.668;2023-03-14T03:22:35;100518.03;;;13.10;64.02
77776;BME280;66965;43.328;6.668;2023-03-14T03:25:00;100539.88;;;13.12;64.31
77776;BME280;66965;43.328;6.668;2023-03-14T03:27:26;100520.75;;;13.09;64.32
77776;BME280;66965;43.328;6.668;2023-03-14T03:29:51;100515.28;;;13.13;64.02
77776;BME280;66965;43.328;6.668;2023-03-14T03:32:16;100524.19;;;13.09;63.97
77776;BME280;66965;43.328;6.668;2023-03-14T03:34:42;100517.25;;;13.06;64.16
77776;BME280;66965;43.328;6.668;2023-03-14T03:37:07;100511.25;;;13.03;63.83
77776;BME280;66965;43.328;6.668;2023-03-14T03:39:33;100494.63;;;13.01;64.46
77776;BME280;66965;43.328;6.668;2023-03-14T03:41:58;100482.34;;;13.01;64.12
77776;BME280;66965;43.328;6.668;2023-03-14T03:44:24;100487.72;;;12.98;62.86
77776;BME280;66965;43.328;6.668;2023-03-14T03:46:49;100471.72;;;13.04;61.59
77776;BME280;66965;43.328;6.668;2023-03-14T03:49:15;100490.22;;;13.03;60.92
77776;BME280;66965;43.328;6.668;2023-03-14T03:51:40;100473.47;;;13.04;60.91
77776;BME280;66965;43.328;6.668;2023-03-14T03:54:06;100480.75;;;12.97;60.33
77776;BME280;66965;43.328;6.668;2023-03-14T03:56:31;100472.88;;;12.97;60.80
77776;BME280;66965;43.328;6.668;2023-03-14T03:58:57;100473.38;;;12.84;60.97
77776;BME280;66965;43.328;6.668;2023-03-14T04:01:22;100476.84;;;12.84;61.07
77776;BME280;66965;43.328;6.668;2023-03-14T04:03:48;100500.66;;;12.81;61.00
77776;BME280;66965;43.328;6.668;2023-03-14T04:06:13;100496.97;;;12.85;60.17
77776;BME280;66965;43.328;6.668;2023-03-14T04:08:39;100508.41;;;12.84;60.75
77776;BME280;66965;43.328;6.668;2023-03-14T04:11:08;100505.03;;;12.81;60.33
77776;BME280;66965;43.328;6.668;2023-03-14T04:13:34;100514.72;;;12.79;60.24
77776;BME280;66965;43.328;6.668;2023-03-14T04:15:59;100505.03;;;12.81;60.47
77776;BME280;66965;43.328;6.668;2023-03-14T04:18:25;100498.44;;;12.69;60.84
77776;BME280;66965;43.328;6.668;2023-03-14T04:20:52;100511.69;;;12.66;60.87
77776;BME280;66965;43.328;6.668;2023-03-14T04:23:18;100507.19;;;12.70;60.56
77776;BME280;66965;43.328;6.668;2023-03-14T04:25:43;100518.31;;;12.78;60.09
77776;BME280;66965;43.328;6.668;2023-03-14T04:28:08;100511.38;;;12.75;60.09
77776;BME280;66965;43.328;6.668;2023-03-14T04:30:34;100514.25;;;12.68;59.79
77776;BME280;66965;43.328;6.668;2023-03-14T04:33:00;100510.72;;;12.69;59.88
77776;BME280;66965;43.328;6.668;2023-03-14T04:35:25;100517.72;;;12.70;59.62
77776;BME280;66965;43.328;6.668;2023-03-14T04:37:51;100525.72;;;12.65;59.65
77776;BME280;66965;43.328;6.668;2023-03-14T04:40:17;100524.66;;;12.71;58.78
77776;BME280;66965;43.328;6.668;2023-03-14T04:42:42;100521.81;;;12.77;58.39
77776;BME280;66965;43.328;6.668;2023-03-14T04:45:08;100523.50;;;12.79;57.98
77776;BME280;66965;43.328;6.668;2023-03-14T04:47:33;100522.00;;;12.72;58.03
77776;BME280;66965;43.328;6.668;2023-03-14T04:49:59;100519.41;;;12.71;57.35
77776;BME280;66965;43.328;6.668;2023-03-14T04:52:25;100525.50;;;12.73;57.33
77776;BME280;66965;43.328;6.668;2023-03-14T04:54:50;100531.97;;;12.63;58.36
77776;BME280;66965;43.328;6.668;2023-03-14T04:57:16;100530.25;;;12.62;58.34
77776;BME280;66965;43.328;6.668;2023-03-14T04:59:41;100544.56;;;12.53;58.68
77776;BME280;66965;43.328;6.668;2023-03-14T05:02:07;100555.25;;;12.48;59.17
77776;BME280;66965;43.328;6.668;2023-03-14T05:04:32;100557.25;;;12.40;59.79
77776;BME280;66965;43.328;6.668;2023-03-14T05:06:59;100570.13;;;12.22;60.92
77776;BME280;66965;43.328;6.668;2023-03-14T05:09:25;100568.47;;;12.19;61.57
77776;BME280;66965;43.328;6.668;2023-03-14T05:11:50;100575.91;;;12.05;61.97
77776;BME280;66965;43.328;6.668;2023-03-14T05:14:16;100568.81;;;12.09;61.92
77776;BME280;66965;43.328;6.668;2023-03-14T05:16:41;100574.13;;;12.07;62.54
77776;BME280;66965;43.328;6.668;2023-03-14T05:19:06;100577.56;;;12.09;62.51
77776;BME280;66965;43.328;6.668;2023-03-14T05:21:32;100595.75;;;12.15;61.95
77776;BME280;66965;43.328;6.668;2023-03-14T05:23:57;100580.34;;;12.05;62.18
77776;BME280;66965;43.328;6.668;2023-03-14T05:26:23;100594.38;;;12.04;62.33
77776;BME280;66965;43.328;6.668;2023-03-14T05:28:48;100594.31;;;12.05;61.97
77776;BME280;66965;43.328;6.668;2023-03-14T05:31:14;100587.28;;;12.06;61.65
77776;BME280;66965;43.328;6.668;2023-03-14T05:33:40;100593.34;;;12.08;61.92
77776;BME280;66965;43.328;6.668;2023-03-14T05:36:05;100595.50;;;11.95;62.26
77776;BME280;66965;43.328;6.668;2023-03-14T05:38:31;100582.91;;;12.06;62.18
77776;BME280;66965;43.328;6.668;2023-03-14T05:40:57;100591.78;;;12.02;62.05
77776;BME280;66965;43.328;6.668;2023-03-14T05:43:22;100611.19;;;11.98;62.29
77776;BME280;66965;43.328;6.668;2023-03-14T05:45:47;100590.09;;;12.00;61.94
77776;BME280;66965;43.328;6.668;2023-03-14T05:48:13;100582.97;;;12.05;62.19
77776;BME280;66965;43.328;6.668;2023-03-14T05:50:38;100599.47;;;12.08;62.15
77776;BME280;66965;43.328;6.668;2023-03-14T05:53:05;100608.19;;;12.10;62.31
77776;BME280;66965;43.328;6.668;2023-03-14T05:55:30;100603.91;;;12.06;62.71
77776;BME280;66965;43.328;6.668;2023-03-14T05:57:56;100599.66;;;12.02;63.29
77776;BME280;66965;43.328;6.668;2023-03-14T06:00:21;100598.09;;;11.97;63.46
77776;BME280;66965;43.328;6.668;2023-03-14T06:02:47;100597.97;;;12.00;64.02
77776;BME280;66965;43.328;6.668;2023-03-14T06:05:12;100595.41;;;11.98;64.10
77776;BME280;66965;43.328;6.668;2023-03-14T06:07:38;100596.28;;;11.99;63.21
77776;BME280;66965;43.328;6.668;2023-03-14T06:10:04;100581.13;;;12.07;63.84
77776;BME280;66965;43.328;6.668;2023-03-14T06:12:29;100583.81;;;12.05;63.91
77776;BME280;66965;43.328;6.668;2023-03-14T06:14:55;100589.78;;;12.10;63.46
77776;BME280;66965;43.328;6.668;2023-03-14T06:17:20;100587.44;;;12.01;64.20
77776;BME280;66965;43.328;6.668;2023-03-14T06:19:46;100574.22;;;12.04;64.13
77776;BME280;66965;43.328;6.668;2023-03-14T06:22:11;100575.91;;;12.05;63.43
77776;BME280;66965;43.328;6.668;2023-03-14T06:24:37;100577.66;;;12.06;63.57
77776;BME280;66965;43.328;6.668;2023-03-14T06:27:02;100574.97;;;12.08;63.53
77776;BME280;66965;43.328;6.668;2023-03-14T06:29:29;100572.13;;;12.15;63.50
77776;BME280;66965;43.328;6.668;2023-03-14T06:31:54;100576.34;;;12.19;63.11
77776;BME280;66965;43.328;6.668;2023-03-14T06:34:20;100570.81;;;12.28;62.87
77776;BME280;66965;43.328;6.668;2023-03-14T06:36:45;100577.19;;;12.47;62.38
77776;BME280;66965;43.328;6.668;2023-03-14T06:39:11;100582.91;;;12.34;62.39
77776;BME280;66965;43.328;6.668;2023-03-14T06:41:36;100580.25;;;12.60;62.74
77776;BME280;66965;43.328;6.668;2023-03-14T06:44:01;100584.88;;;12.54;62.00
77776;BME280;66965;43.328;6.668;2023-03-14T06:46:27;100580.00;;;12.41;61.96
77776;BME280;66965;43.328;6.668;2023-03-14T06:48:52;100581.66;;;12.45;62.02
77776;BME280;66965;43.328;6.668;2023-03-14T06:51:18;100591.03;;;12.53;61.41
77776;BME280;66965;43.328;6.668;2023-03-14T06:53:44;100594.28;;;12.61;60.99
77776;BME280;66965;43.328;6.668;2023-03-14T06:56:09;100608.38;;;12.58;60.84
77776;BME280;66965;43.328;6.668;2023-03-14T06:58:35;100612.13;;;12.77;60.17
77776;BME280;66965;43.328;6.668;2023-03-14T07:01:00;100602.59;;;12.73;60.11
77776;BME280;66965;43.328;6.668;2023-03-14T07:03:26;100620.28;;;12.70;60.13
77776;BME280;66965;43.328;6.668;2023-03-14T07:05:52;100617.13;;;12.85;60.09
77776;BME280;66965;43.328;6.668;2023-03-14T07:08:17;100609.41;;;12.79;60.21
77776;BME280;66965;43.328;6.668;2023-03-14T07:10:43;100614.69;;;12.79;60.74
77776;BME280;66965;43.328;6.668;2023-03-14T07:13:08;100626.22;;;12.75;60.51
77776;BME280;66965;43.328;6.668;2023-03-14T07:15:33;100622.06;;;12.68;60.43
77776;BME280;66965;43.328;6.668;2023-03-14T07:17:59;100614.91;;;12.73;60.54
77776;BME280;66965;43.328;6.668;2023-03-14T07:20:24;100624.31;;;12.80;60.50
77776;BME280;66965;43.328;6.668;2023-03-14T07:22:50;100632.69;;;12.91;60.58
77776;BME280;66965;43.328;6.668;2023-03-14T07:25:16;100634.44;;;12.92;59.81
77776;BME280;66965;43.328;6.668;2023-03-14T07:27:45;100634.19;;;12.98;60.16
77776;BME280;66965;43.328;6.668;2023-03-14T07:30:12;100628.84;;;13.01;59.34
77776;BME280;66965;43.328;6.668;2023-03-14T07:32:38;100636.69;;;13.02;59.65
77776;BME280;66965;43.328;6.668;2023-03-14T07:35:03;100643.94;;;13.22;60.10
77776;BME280;66965;43.328;6.668;2023-03-14T07:37:29;100641.03;;;13.30;59.40
77776;BME280;66965;43.328;6.668;2023-03-14T07:39:55;100636.38;;;13.36;58.46
77776;BME280;66965;43.328;6.668;2023-03-14T07:42:20;100646.81;;;13.39;58.47
77776;BME280;66965;43.328;6.668;2023-03-14T07:44:45;100654.31;;;13.50;58.13
77776;BME280;66965;43.328;6.668;2023-03-14T07:47:11;100637.22;;;13.61;57.53
77776;BME280;66965;43.328;6.668;2023-03-14T07:49:37;100656.94;;;13.75;57.47
77776;BME280;66965;43.328;6.668;2023-03-14T07:52:02;100645.19;;;13.83;56.94
77776;BME280;66965;43.328;6.668;2023-03-14T07:54:27;100645.34;;;14.02;57.75
77776;BME280;66965;43.328;6.668;2023-03-14T07:56:53;100646.19;;;14.04;56.75
77776;BME280;66965;43.328;6.668;2023-03-14T07:59:18;100660.53;;;14.18;56.31
77776;BME280;66965;43.328;6.668;2023-03-14T08:01:44;100614.13;;;14.79;54.94
77776;BME280;66965;43.328;6.668;2023-03-14T08:04:10;100636.78;;;15.25;52.46
77776;BME280;66965;43.328;6.668;2023-03-14T08:06:36;100644.13;;;15.59;52.25
77776;BME280;66965;43.328;6.668;2023-03-14T08:09:02;100628.66;;;16.08;49.41
77776;BME280;66965;43.328;6.668;2023-03-14T08:11:28;100621.59;;;15.89;48.76
77776;BME280;66965;43.328;6.668;2023-03-14T08:13:53;100628.38;;;16.14;49.17
77776;BME280;66965;43.328;6.668;2023-03-14T08:16:19;100646.72;;;15.79;49.66
77776;BME280;66965;43.328;6.668;2023-03-14T08:18:45;100629.00;;;16.19;48.64
77776;BME280;66965;43.328;6.668;2023-03-14T08:21:11;100632.78;;;16.32;48.13
77776;BME280;66965;43.328;6.668;2023-03-14T08:23:36;100590.25;;;15.82;48.51
77776;BME280;66965;43.328;6.668;2023-03-14T08:26:02;100631.72;;;16.36;47.92
77776;BME280;66965;43.328;6.668;2023-03-14T08:28:27;100608.53;;;16.59;48.04
77776;BME280;66965;43.328;6.668;2023-03-14T08:30:56;100605.06;;;16.93;46.81
77776;BME280;66965;43.328;6.668;2023-03-14T08:33:23;100584.88;;;16.91;47.10
77776;BME280;66965;43.328;6.668;2023-03-14T08:35:48;100581.84;;;16.98;46.49
77776;BME280;66965;43.328;6.668;2023-03-14T08:38:16;100596.63;;;16.68;47.31
77776;BME280;66965;43.328;6.668;2023-03-14T08:40:41;100596.72;;;16.84;46.99
77776;BME280;66965;43.328;6.668;2023-03-14T08:43:07;100591.78;;;16.59;47.61
77776;BME280;66965;43.328;6.668;2023-03-14T08:45:32;100590.78;;;16.79;47.25
77776;BME280;66965;43.328;6.668;2023-03-14T08:47:58;100594.72;;;17.56;45.78
77776;BME280;66965;43.328;6.668;2023-03-14T08:50:24;100584.94;;;17.24;45.51
77776;BME280;66965;43.328;6.668;2023-03-14T08:52:49;100592.47;;;17.31;46.21
77776;BME280;66965;43.328;6.668;2023-03-14T08:55:15;100597.78;;;16.97;47.45
77776;BME280;66965;43.328;6.668;2023-03-14T08:57:40;100565.03;;;16.82;47.14
77776;BME280;66965;43.328;6.668;2023-03-14T09:00:06;100571.25;;;16.98;46.98
77776;BME280;66965;43.328;6.668;2023-03-14T09:02:37;100571.34;;;16.80;47.12
77776;BME280;66965;43.328;6.668;2023-03-14T09:05:03;100582.09;;;17.76;45.68
77776;BME280;66965;43.328;6.668;2023-03-14T09:07:29;100547.13;;;17.53;45.47
77776;BME280;66965;43.328;6.668;2023-03-14T09:09:54;100582.84;;;16.96;46.63
77776;BME280;66965;43.328;6.668;2023-03-14T09:12:20;100558.06;;;17.14;46.71
77776;BME280;66965;43.328;6.668;2023-03-14T09:14:45;100555.50;;;17.78;45.67
77776;BME280;66965;43.328;6.668;2023-03-14T09:17:11;100566.19;;;18.08;44.87
77776;BME280;66965;43.328;6.668;2023-03-14T09:19:36;100550.63;;;17.86;45.20
77776;BME280;66965;43.328;6.668;2023-03-14T09:22:02;100547.28;;;17.98;44.87
77776;BME280;66965;43.328;6.668;2023-03-14T09:24:28;100544.38;;;17.39;46.46
77776;BME280;66965;43.328;6.668;2023-03-14T09:26:55;100561.28;;;17.53;46.13
77776;BME280;66965;43.328;6.668;2023-03-14T09:29:21;100535.44;;;17.57;45.97
77776;BME280;66965;43.328;6.668;2023-03-14T09:31:47;100545.41;;;17.69;45.34
77776;BME280;66965;43.328;6.668;2023-03-14T09:34:12;100540.78;;;17.88;45.00
77776;BME280;66965;43.328;6.668;2023-03-14T09:36:38;100541.13;;;17.66;45.91
77776;BME280;66965;43.328;6.668;2023-03-14T09:39:04;100549.53;;;18.06;45.30
77776;BME280;66965;43.328;6.668;2023-03-14T09:41:33;100538.38;;;17.99;45.32
77776;BME280;66965;43.328;6.668;2023-03-14T09:46:44;100519.13;;;18.11;44.55
77776;BME280;66965;43.328;6.668;2023-03-14T09:51:45;100540.38;;;18.11;44.04
77776;BME280;66965;43.328;6.668;2023-03-14T09:54:25;100530.34;;;17.85;44.76
77776;BME280;66965;43.328;6.668;2023-03-14T09:56:54;100527.50;;;18.04;44.55
77776;BME280;66965;43.328;6.668;2023-03-14T09:59:20;100534.97;;;17.49;45.40
77776;BME280;66965;43.328;6.668;2023-03-14T10:01:45;100516.53;;;18.25;44.38
77776;BME280;66965;43.328;6.668;2023-03-14T10:04:15;100523.75;;;18.08;44.45
77776;BME280;66965;43.328;6.668;2023-03-14T10:06:42;100512.06;;;17.81;45.42
77776;BME280;66965;43.328;6.668;2023-03-14T10:09:17;100508.88;;;18.05;44.56
77776;BME280;66965;43.328;6.668;2023-03-14T10:11:44;100517.13;;;18.30;43.53
77776;BME280;66965;43.328;6.668;2023-03-14T10:14:10;100522.56;;;18.59;42.71
77776;BME280;66965;43.328;6.668;2023-03-14T10:16:44;100505.59;;;19.19;41.35
77776;BME280;66965;43.328;6.668;2023-03-14T10:19:15;100516.03;;;18.03;43.26
77776;BME280;66965;43.328;6.668;2023-03-14T10:21:43;100503.50;;;18.52;42.97
77776;BME280;66965;43.328;6.668;2023-03-14T10:24:10;100505.94;;;18.85;41.47
77776;BME280;66965;43.328;6.668;2023-03-14T10:26:36;100503.97;;;18.59;42.44
77776;BME280;66965;43.328;6.668;2023-03-14T10:29:11;100530.03;;;18.82;42.60
77776;BME280;66965;43.328;6.668;2023-03-14T10:31:54;100493.25;;;18.90;42.41
77776;BME280;66965;43.328;6.668;2023-03-14T10:34:33;100490.28;;;18.80;42.53
77776;BME280;66965;43.328;6.668;2023-03-14T10:37:06;100482.69;;;18.88;41.78
77776;BME280;66965;43.328;6.668;2023-03-14T10:42:15;100489.34;;;17.11;44.52
77776;BME280;66965;43.328;6.668;2023-03-14T10:44:42;100470.81;;;16.78;46.36
77776;BME280;66965;43.328;6.668;2023-03-14T10:47:16;100484.75;;;16.65;45.61
77776;BME280;66965;43.328;6.668;2023-03-14T10:49:42;100463.69;;;16.63;46.22
77776;BME280;66965;43.328;6.668;2023-03-14T10:54:39;100438.41;;;17.86;43.14
77776;BME280;66965;43.328;6.668;2023-03-14T10:57:05;100437.72;;;17.51;43.54
77776;BME280;66965;43.328;6.668;2023-03-14T10:59:38;100445.44;;;17.55;43.09
77776;BME280;66965;43.328;6.668;2023-03-14T11:07:48;100441.72;;;17.42;42.71
77776;BME280;66965;43.328;6.668;2023-03-14T11:10:35;100425.19;;;17.22;42.65
77776;BME280;66965;43.328;6.668;2023-03-14T11:21:28;100404.53;;;17.44;42.39
77776;BME280;66965;43.328;6.668;2023-03-14T11:31:49;100379.41;;;17.66;40.34
77776;BME280;66965;43.328;6.668;2023-03-14T11:34:27;100350.44;;;17.32;41.22
77776;BME280;66965;43.328;6.668;2023-03-14T11:37:07;100369.63;;;17.51;40.98
77776;BME280;66965;43.328;6.668;2023-03-14T11:39:41;100363.91;;;17.43;40.95
77776;BME280;66965;43.328;6.668;2023-03-14T11:42:12;100347.84;;;17.46;40.82
77776;BME280;66965;43.328;6.668;2023-03-14T11:44:40;100356.16;;;17.09;41.11
77776;BME280;66965;43.328;6.668;2023-03-14T11:47:18;100314.28;;;17.31;40.25
77776;BME280;66965;43.328;6.668;2023-03-14T11:49:48;100352.50;;;17.88;40.30
77776;BME280;66965;43.328;6.668;2023-03-14T11:52:33;100341.63;;;17.16;39.43
77776;BME280;66965;43.328;6.668;2023-03-14T11:55:10;100357.00;;;16.94;39.78
77776;BME280;66965;43.328;6.668;2023-03-14T11:57:38;100350.31;;;16.71;39.75
77776;BME280;66965;43.328;6.668;2023-03-14T12:02:57;100371.97;;;16.62;39.96
77776;BME280;66965;43.328;6.668;2023-03-14T12:06:19;100386.91;;;16.46;39.58
77776;BME280;66965;43.328;6.668;2023-03-14T12:08:52;100390.06;;;16.20;40.04
77776;BME280;66965;43.328;6.668;2023-03-14T12:14:02;100418.69;;;16.12;40.08
77776;BME280;66965;43.328;6.668;2023-03-14T12:16:37;100420.69;;;16.07;40.23
77776;BME280;66965;43.328;6.668;2023-03-14T12:21:50;100426.06;;;16.22;39.97
77776;BME280;66965;43.328;6.668;2023-03-14T12:24:24;100446.53;;;16.19;40.05
77776;BME280;66965;43.328;6.668;2023-03-14T12:26:56;100432.75;;;16.29;40.20
77776;BME280;66965;43.328;6.668;2023-03-14T12:29:23;100445.56;;;16.55;39.90
77776;BME280;66965;43.328;6.668;2023-03-14T12:32:08;100434.09;;;16.55;39.94
77776;BME280;66965;43.328;6.668;2023-03-14T12:34:41;100431.09;;;16.78;39.16
77776;BME280;66965;43.328;6.668;2023-03-14T12:37:23;100426.69;;;16.94;38.62
77776;BME280;66965;43.328;6.668;2023-03-14T12:40:00;100432.59;;;16.99;38.87
77776;BME280;66965;43.328;6.668;2023-03-14T12:47:47;100418.44;;;17.16;38.26
77776;BME280;66965;43.328;6.668;2023-03-14T12:50:24;100419.03;;;17.05;38.19
77776;BME280;66965;43.328;6.668;2023-03-14T12:55:46;100419.78;;;16.92;37.47
77776;BME280;66965;43.328;6.668;2023-03-14T12:58:28;100425.16;;;16.90;37.48
77776;BME280;66965;43.328;6.668;2023-03-14T13:00:59;100420.59;;;16.77;36.62
77776;BME280;66965;43.328;6.668;2023-03-14T13:03:37;100401.22;;;16.76;35.15
77776;BME280;66965;43.328;6.668;2023-03-14T13:06:05;100399.59;;;16.74;34.82
77776;BME280;66965;43.328;6.668;2023-03-14T13:11:04;100400.31;;;16.93;34.63
77776;BME280;66965;43.328;6.668;2023-03-14T13:13:34;100385.34;;;16.92;33.81
77776;BME280;66965;43.328;6.668;2023-03-14T13:16:01;100393.13;;;16.95;33.66
77776;BME280;66965;43.328;6.668;2023-03-14T13:18:38;100394.31;;;16.89;32.68
77776;BME280;66965;43.328;6.668;2023-03-14T13:21:25;100372.53;;;16.84;32.44
77776;BME280;66965;43.328;6.668;2023-03-14T13:24:00;100407.56;;;16.89;31.54
77776;BME280;66965;43.328;6.668;2023-03-14T13:26:35;100410.97;;;16.91;31.73
77776;BME280;66965;43.328;6.668;2023-03-14T13:29:10;100405.34;;;16.97;31.58
77776;BME280;66965;43.328;6.668;2023-03-14T13:31:43;100403.94;;;17.07;31.45
77776;BME280;66965;43.328;6.668;2023-03-14T13:34:10;100401.22;;;17.56;31.12
77776;BME280;66965;43.328;6.668;2023-03-14T13:36:36;100383.34;;;18.05;30.08
77776;BME280;66965;43.328;6.668;2023-03-14T13:39:02;100347.69;;;18.39;28.67
77776;BME280;66965;43.328;6.668;2023-03-14T13:41:30;100341.88;;;18.32;28.59
77776;BME280;66965;43.328;6.668;2023-03-14T13:44:03;100336.88;;;19.66;27.25
77776;BME280;66965;43.328;6.668;2023-03-14T13:46:33;100353.13;;;20.27;25.71
77776;BME280;66965;43.328;6.668;2023-03-14T13:49:02;100337.44;;;19.71;26.00
77776;BME280;66965;43.328;6.668;2023-03-14T13:51:29;100350.19;;;20.93;24.66